Time;durP1;ratioP1;P1;durP2;ratioP2;P2;SDS_P1;SDS_P2;PMS_P1;PMS_P2;Temp;Humidity;BMP_temperature;BMP_pressure;BME280_temperature;BME280_humidity;BME280_pressure;Samples;Min_cycle;Max_cycle;Signal;HPM_P1;HPM_P2
2023/03/27 00:02:21;;;;;;;3.90;2.50;;;;;;;4.40;100.00;98434.67;107234;1275;22793;-65
2023/03/27 00:04:53;;;;;;;5.10;2.40;;;;;;;4.35;100.00;98435.95;107312;1276;25417;-67
2023/03/27 00:07:21;;;;;;;5.60;2.40;;;;;;;4.29;100.00;98435.59;107427;1276;24353;-67
2023/03/27 00:09:50;;;;;;;4.10;2.20;;;;;;;4.31;100.00;98436.96;107268;1275;22560;-66
2023/03/27 00:12:21;;;;;;;4.40;2.40;;;;;;;4.32;100.00;98441.96;107316;1276;26631;-66
2023/03/27 00:14:52;;;;;;;4.40;2.50;;;;;;;4.30;100.00;98442.93;107338;1276;23372;-66
2023/03/27 00:17:21;;;;;;;5.20;2.20;;;;;;;4.23;100.00;98440.85;107312;1276;22732;-65
2023/03/27 00:19:52;;;;;;;4.10;2.20;;;;;;;4.19;100.00;98434.90;107325;1276;22526;-66
2023/03/27 00:22:23;;;;;;;4.30;2.30;;;;;;;4.19;100.00;98438.52;107397;1276;22537;-66
2023/03/27 00:24:51;;;;;;;4.40;2.20;;;;;;;4.18;100.00;98439.20;107330;1276;25296;-66
2023/03/27 00:30:07;;;;;;;3.50;2.30;;;;;;;4.08;100.00;98436.98;103506;1308;545370;-66
2023/03/27 00:32:36;;;;;;;2.90;1.80;;;;;;;4.07;100.00;98440.88;109665;1289;22222;-67
2023/03/27 00:35:06;;;;;;;4.60;2.20;;;;;;;4.09;100.00;98439.70;109645;1289;22214;-67
2023/03/27 00:37:35;;;;;;;4.30;2.00;;;;;;;4.08;100.00;98446.64;109645;1289;22203;-66
2023/03/27 00:40:07;;;;;;;3.60;1.80;;;;;;;4.06;100.00;98442.11;109659;1289;22601;-67
2023/03/27 00:42:35;;;;;;;3.20;1.90;;;;;;;4.07;100.00;98440.77;109530;1289;171874;-67
2023/03/27 00:45:04;;;;;;;3.10;1.90;;;;;;;4.10;100.00;98449.84;109754;1287;23041;-67
2023/03/27 00:47:35;;;;;;;4.60;2.10;;;;;;;4.05;100.00;98443.61;109737;1287;22265;-67
2023/03/27 00:50:09;;;;;;;4.40;1.80;;;;;;;4.01;100.00;98441.97;109408;1287;22665;-67
2023/03/27 00:52:38;;;;;;;3.40;1.90;;;;;;;4.01;100.00;98437.92;106705;1287;24257;-66
2023/03/27 00:55:09;;;;;;;3.60;1.50;;;;;;;4.04;100.00;98435.20;106763;1287;23363;-66
2023/03/27 00:57:38;;;;;;;3.30;1.70;;;;;;;4.05;100.00;98441.77;106500;1287;25378;-66
2023/03/27 01:00:12;;;;;;;5.00;2.00;;;;;;;4.06;100.00;98444.80;106566;1287;22544;-66
2023/03/27 01:02:43;;;;;;;3.70;1.70;;;;;;;4.01;100.00;98446.33;106647;1287;22535;-66
2023/03/27 01:05:12;;;;;;;4.50;2.00;;;;;;;3.94;100.00;98445.05;106463;1287;25399;-66
2023/03/27 01:07:40;;;;;;;3.60;2.00;;;;;;;3.94;100.00;98444.40;106283;1287;22536;-66
2023/03/27 01:10:53;;;;;;;3.50;1.60;;;;;;;3.95;100.00;98445.70;106430;1287;25433;-66
2023/03/27 01:13:50;;;;;;;4.00;1.70;;;;;;;3.94;100.00;98443.12;106524;1287;25309;-67
2023/03/27 01:16:48;;;;;;;5.70;2.00;;;;;;;3.86;100.00;98448.88;106562;1287;25366;-66
2023/03/27 01:19:29;;;;;;;3.20;1.90;;;;;;;3.79;100.00;98444.42;106196;1287;26614;-68
2023/03/27 01:22:16;;;;;;;3.50;1.70;;;;;;;3.82;100.00;98439.53;106333;1287;23063;-66
2023/03/27 01:25:06;;;;;;;4.20;2.00;;;;;;;3.81;100.00;98435.55;106216;1287;25360;-66
2023/03/27 01:27:38;;;;;;;3.00;1.80;;;;;;;3.74;100.00;98441.64;106692;1287;22513;-67
2023/03/27 01:30:16;;;;;;;2.80;1.80;;;;;;;3.74;100.00;98441.27;106624;1287;23450;-67
2023/03/27 01:33:03;;;;;;;3.80;2.00;;;;;;;3.75;100.00;98444.12;106632;1287;25379;-67
2023/03/27 01:35:42;;;;;;;4.80;1.70;;;;;;;3.74;100.00;98445.52;106725;1287;25360;-67
2023/03/27 01:38:22;;;;;;;4.40;1.80;;;;;;;3.66;100.00;98446.64;106536;1287;25444;-67
2023/03/27 01:40:57;;;;;;;4.20;1.90;;;;;;;3.65;100.00;98443.34;106501;1287;22551;-67
2023/03/27 01:43:35;;;;;;;4.20;1.90;;;;;;;3.70;100.00;98442.90;106584;1287;22530;-67
2023/03/27 01:46:07;;;;;;;2.80;2.00;;;;;;;3.67;100.00;98438.95;106469;1287;22544;-67
2023/03/27 01:48:55;;;;;;;4.40;2.00;;;;;;;3.62;100.00;98435.84;106620;1287;22565;-67
2023/03/27 01:51:37;;;;;;;2.80;1.70;;;;;;;3.61;100.00;98432.61;106491;1287;22631;-67
2023/03/27 01:54:26;;;;;;;2.90;1.60;;;;;;;3.62;100.00;98432.29;106549;1287;24431;-67
2023/03/27 01:57:01;;;;;;;4.30;2.30;;;;;;;3.61;100.00;98431.15;109704;1287;22232;-67
2023/03/27 01:59:33;;;;;;;4.80;2.10;;;;;;;3.57;100.00;98428.50;109664;1287;22446;-67
2023/03/27 02:02:07;;;;;;;3.70;1.90;;;;;;;3.62;100.00;98426.31;110058;1279;22336;-68
2023/03/27 02:04:45;;;;;;;5.10;2.20;;;;;;;3.65;100.00;98429.35;110056;1279;22227;-67
2023/03/27 02:07:17;;;;;;;3.50;1.70;;;;;;;3.67;100.00;98433.20;110087;1279;22303;-67
2023/03/27 02:09:49;;;;;;;2.70;1.60;;;;;;;3.69;100.00;98426.42;110051;1279;22247;-68
2023/03/27 02:12:31;;;;;;;3.80;2.00;;;;;;;3.66;100.00;98435.77;108166;1279;22699;-67
2023/03/27 02:15:08;;;;;;;2.50;1.60;;;;;;;3.61;100.00;98436.81;106883;1279;23277;-67
2023/03/27 02:18:03;;;;;;;3.90;1.90;;;;;;;3.62;100.00;98439.23;107061;1279;22530;-67
2023/03/27 02:20:33;;;;;;;5.10;2.00;;;;;;;3.62;100.00;98441.83;107141;1279;24370;-67
2023/03/27 02:23:01;;;;;;;2.70;1.50;;;;;;;3.62;100.00;98443.91;106932;1279;22539;-66
2023/03/27 02:25:39;;;;;;;3.80;1.90;;;;;;;3.56;100.00;98440.91;107015;1279;25425;-67
2023/03/27 02:28:13;;;;;;;4.40;1.90;;;;;;;3.52;100.00;98450.14;106970;1279;25237;-67
2023/03/27 02:30:45;;;;;;;4.00;1.80;;;;;;;3.55;100.00;98449.67;107038;1279;22524;-67
2023/03/27 02:33:49;;;;;;;4.00;2.10;;;;;;;3.56;100.00;98455.77;107087;1279;25389;-67
2023/03/27 02:36:30;;;;;;;2.80;1.90;;;;;;;3.52;100.00;98462.19;107062;1279;22520;-67
2023/03/27 02:39:03;;;;;;;6.00;2.50;;;;;;;3.45;100.00;98468.33;106975;1279;25366;-66
2023/03/27 02:41:36;;;;;;;5.10;2.20;;;;;;;3.44;100.00;98469.56;107013;1279;25379;-67
2023/03/27 02:44:32;;;;;;;3.60;1.80;;;;;;;3.44;100.00;98471.70;106903;1279;25388;-67
2023/03/27 02:47:31;;;;;;;3.90;1.90;;;;;;;3.40;100.00;98475.98;107103;1279;25372;-67
2023/03/27 02:50:04;;;;;;;5.20;2.30;;;;;;;3.35;100.00;98482.28;107071;1256;24378;-67
2023/03/27 02:52:50;;;;;;;4.50;2.10;;;;;;;3.35;100.00;98481.36;107106;1279;25375;-65
2023/03/27 02:55:21;;;;;;;3.50;1.70;;;;;;;3.36;100.00;98486.60;106919;1279;22526;-67
2023/03/27 02:57:55;;;;;;;3.70;1.80;;;;;;;3.29;100.00;98487.77;107099;1279;24272;-67
2023/03/27 03:00:25;;;;;;;3.70;1.70;;;;;;;3.21;100.00;98486.87;106920;1279;25409;-67
2023/03/27 03:03:52;;;;;;;3.20;1.90;;;;;;;3.19;100.00;98492.66;107130;1279;23717;-67
2023/03/27 03:07:05;;;;;;;5.20;1.80;;;;;;;3.19;100.00;98497.30;106945;1279;25350;-67
2023/03/27 03:09:34;;;;;;;3.00;1.70;;;;;;;3.17;100.00;98498.19;106971;1279;25366;-67
2023/03/27 03:12:08;;;;;;;4.70;1.90;;;;;;;3.13;100.00;98497.08;106821;1279;22557;-67
2023/03/27 03:14:44;;;;;;;3.80;1.60;;;;;;;3.08;100.00;98495.89;107065;1279;26525;-67
2023/03/27 03:17:13;;;;;;;2.70;1.60;;;;;;;3.07;100.00;98494.61;109206;1279;25342;-67
2023/03/27 03:19:41;;;;;;;3.60;1.60;;;;;;;3.09;100.00;98494.66;107050;1279;25367;-67
2023/03/27 03:22:10;;;;;;;4.20;2.20;;;;;;;3.08;100.00;98492.57;107022;1279;22526;-67
2023/03/27 03:24:40;;;;;;;2.80;1.50;;;;;;;3.08;100.00;98487.41;107036;1279;22524;-67
2023/03/27 03:27:13;;;;;;;3.50;1.80;;;;;;;3.03;100.00;98491.44;106953;1279;22611;-67
2023/03/27 03:29:50;;;;;;;3.10;1.60;;;;;;;2.99;100.00;98490.05;110073;1279;22513;-67
2023/03/27 03:32:26;;;;;;;4.10;1.90;;;;;;;3.03;100.00;98492.17;110151;1279;22244;-68
2023/03/27 03:34:55;;;;;;;3.40;1.40;;;;;;;3.07;100.00;98494.11;109562;1279;23916;-67
2023/03/27 03:37:27;;;;;;;3.70;1.50;;;;;;;3.08;100.00;98497.39;106887;1279;22536;-67
2023/03/27 03:39:58;;;;;;;1.80;1.40;;;;;;;3.05;100.00;98492.63;106849;1279;23928;-67
2023/03/27 03:42:26;;;;;;;3.20;1.70;;;;;;;2.99;100.00;98496.13;106905;1279;25378;-67
2023/03/27 03:44:55;;;;;;;3.70;1.40;;;;;;;2.95;100.00;98495.59;106648;1279;25532;-67
2023/03/27 03:47:25;;;;;;;2.10;1.40;;;;;;;2.95;100.00;98497.25;106761;1280;25369;-67
2023/03/27 03:49:53;;;;;;;3.50;1.70;;;;;;;2.94;100.00;98500.64;107163;1281;22914;-67
2023/03/27 03:52:21;;;;;;;2.50;1.40;;;;;;;2.93;100.00;98502.41;106891;1281;26513;-67
2023/03/27 03:54:50;;;;;;;3.00;1.30;;;;;;;2.93;100.00;98505.63;106841;1281;23447;-66
2023/03/27 03:57:24;;;;;;;3.30;1.50;;;;;;;2.88;100.00;98508.20;107112;1281;25922;-67
2023/03/27 04:00:11;;;;;;;4.60;1.70;;;;;;;2.81;100.00;98509.16;107253;1281;25419;-67
2023/03/27 04:02:56;;;;;;;4.10;2.00;;;;;;;2.77;100.00;98508.71;107034;1281;25369;-67
2023/03/27 04:05:24;;;;;;;3.00;1.70;;;;;;;2.77;100.00;98515.07;106754;1281;22557;-66
2023/03/27 04:07:58;;;;;;;2.80;1.70;;;;;;;2.79;100.00;98519.17;106963;1281;26098;-67
2023/03/27 04:10:47;;;;;;;3.00;1.80;;;;;;;2.81;100.00;98516.61;106776;1281;22571;-67
2023/03/27 04:13:24;;;;;;;;;;;;;;;2.82;100.00;98517.38;107132;1281;25453;-67
2023/03/27 04:16:00;;;;;;;3.20;2.10;;;;;;;2.76;100.00;98516.23;106822;1281;26067;-67
2023/03/27 04:18:39;;;;;;;4.70;2.20;;;;;;;2.70;100.00;98518.41;106735;1281;24408;-67
2023/03/27 04:21:13;;;;;;;4.00;2.00;;;;;;;2.69;100.00;98518.62;106729;1281;25363;-66
2023/03/27 04:23:44;;;;;;;3.60;2.20;;;;;;;2.74;100.00;98520.13;107006;1281;25316;-67
2023/03/27 04:26:14;;;;;;;3.70;1.80;;;;;;;2.77;100.00;98517.05;107160;1281;22526;-66
2023/03/27 04:29:09;;;;;;;2.80;1.80;;;;;;;2.81;100.00;98515.70;107001;1281;22525;-66
2023/03/27 04:32:09;;;;;;;3.50;2.00;;;;;;;2.89;100.00;98513.80;106639;1281;22660;-68
2023/03/27 04:34:41;;;;;;;4.50;1.90;;;;;;;3.00;100.00;98514.73;106946;1281;22569;-67
2023/03/27 04:37:09;;;;;;;4.20;1.90;;;;;;;3.10;100.00;98517.00;106936;1281;22513;-67
2023/03/27 04:39:42;;;;;;;5.20;2.00;;;;;;;3.23;100.00;98514.81;106974;1281;24402;-67
2023/03/27 04:42:13;;;;;;;5.20;2.40;;;;;;;3.40;100.00;98517.58;106911;1281;22557;-67
2023/03/27 04:44:45;;;;;;;4.70;1.90;;;;;;;3.65;100.00;98518.98;106882;1281;23217;-67
2023/03/27 04:47:19;;;;;;;3.30;1.70;;;;;;;3.90;100.00;98523.80;106908;1281;23244;-67
2023/03/27 04:49:49;;;;;;;3.50;1.80;;;;;;;4.14;100.00;98529.03;106734;1281;26510;-67
2023/03/27 04:52:28;;;;;;;3.40;2.00;;;;;;;4.36;100.00;98529.71;110061;1281;22862;-67
2023/03/27 04:55:02;;;;;;;4.50;1.80;;;;;;;4.57;100.00;98535.06;110066;1281;22794;-68
2023/03/27 04:57:31;;;;;;;4.10;2.00;;;;;;;4.79;100.00;98544.05;110000;1281;22113;-68
2023/03/27 05:00:14;;;;;;;3.10;1.60;;;;;;;5.09;100.00;98544.66;110061;1281;22303;-68
2023/03/27 05:02:47;;;;;;;4.40;2.10;;;;;;;5.42;100.00;98549.54;110051;1281;22429;-68
2023/03/27 05:05:24;;;;;;;3.00;1.60;;;;;;;5.60;100.00;98551.41;110062;1281;22227;-68
2023/03/27 05:07:53;;;;;;;2.90;1.70;;;;;;;5.74;100.00;98558.40;110021;1281;22330;-68
2023/03/27 05:10:23;;;;;;;3.90;1.60;;;;;;;5.83;100.00;98552.30;109983;1281;22363;-68
2023/03/27 05:12:52;;;;;;;3.90;1.90;;;;;;;5.93;100.00;98554.98;109990;1281;22399;-67
2023/03/27 05:15:26;;;;;;;4.40;2.00;;;;;;;6.10;100.00;98557.73;110003;1281;22178;-67
2023/03/27 05:17:56;;;;;;;4.50;1.90;;;;;;;6.31;100.00;98558.09;110054;1281;23197;-67
2023/03/27 05:20:29;;;;;;;3.60;2.00;;;;;;;6.57;100.00;98561.40;109991;1281;22227;-67
2023/03/27 05:22:59;;;;;;;3.20;2.20;;;;;;;6.90;100.00;98554.42;110043;1281;22239;-67
2023/03/27 05:25:28;;;;;;;4.10;2.30;;;;;;;7.22;100.00;98559.97;110066;1281;22666;-68
2023/03/27 05:27:57;;;;;;;3.60;2.20;;;;;;;7.43;100.00;98561.60;110028;1281;22267;-67
2023/03/27 05:30:29;;;;;;;4.50;1.90;;;;;;;7.67;100.00;98560.36;109952;1281;22227;-67
2023/03/27 05:33:12;;;;;;;3.30;1.80;;;;;;;8.01;100.00;98554.85;109199;1281;25313;-68
2023/03/27 05:35:41;;;;;;;3.90;2.00;;;;;;;8.27;100.00;98554.59;106990;1281;25399;-68
2023/03/27 05:38:12;;;;;;;3.20;1.80;;;;;;;8.47;100.00;98552.67;107046;1281;24391;-68
2023/03/27 05:40:47;;;;;;;4.10;1.70;;;;;;;8.72;100.00;98546.61;106889;1281;22993;-68
2023/03/27 05:43:17;;;;;;;3.30;1.50;;;;;;;8.96;100.00;98547.80;106904;1281;25428;-68
2023/03/27 05:45:45;;;;;;;2.90;1.50;;;;;;;9.23;100.00;98540.67;106892;1281;24257;-68
2023/03/27 05:48:16;;;;;;;2.50;1.60;;;;;;;9.55;100.00;98537.67;106853;1281;25446;-67
2023/03/27 05:50:44;;;;;;;3.40;1.50;;;;;;;9.81;100.00;98540.98;106859;1281;23003;-68
2023/03/27 05:53:20;;;;;;;3.20;1.60;;;;;;;10.09;100.00;98538.86;106812;1281;25281;-67
2023/03/27 05:56:15;;;;;;;3.30;1.60;;;;;;;10.30;100.00;98535.73;107015;1281;26123;-68
2023/03/27 05:58:58;;;;;;;3.70;1.60;;;;;;;10.45;100.00;98528.40;106909;1281;25344;-67
2023/03/27 06:01:26;;;;;;;3.40;1.40;;;;;;;10.55;100.00;98516.52;106882;1281;22526;-68
2023/03/27 06:03:56;;;;;;;3.10;1.50;;;;;;;10.64;100.00;98515.09;106967;1281;25369;-67
2023/03/27 06:06:34;;;;;;;2.70;1.30;;;;;;;10.85;100.00;98510.10;106928;1281;26493;-68
2023/03/27 06:09:03;;;;;;;2.40;1.50;;;;;;;11.03;100.00;98502.33;107008;1281;25526;-68
2023/03/27 06:11:33;;;;;;;2.20;1.40;;;;;;;11.14;100.00;98494.48;106887;1281;22534;-68
2023/03/27 06:14:02;;;;;;;3.00;1.50;;;;;;;11.20;100.00;98488.66;106806;1277;25405;-68
2023/03/27 06:16:51;;;;;;;3.20;1.40;;;;;;;11.27;100.00;98483.19;106711;1280;26666;-68
2023/03/27 06:19:48;;;;;;;3.70;1.50;;;;;;;11.37;100.00;98482.80;106907;1281;23275;-68
2023/03/27 06:22:18;;;;;;;3.50;1.30;;;;;;;11.36;100.00;98471.02;106925;1281;22532;-68
2023/03/27 06:24:47;;;;;;;2.60;1.30;;;;;;;11.20;100.00;98467.48;106930;1279;25506;-68
2023/03/27 06:27:22;;;;;;;2.30;1.30;;;;;;;11.11;100.00;98470.73;106958;1281;25373;-68
2023/03/27 06:29:50;;;;;;;2.90;1.40;;;;;;;11.20;100.00;98469.79;106853;1281;26654;-67
2023/03/27 06:32:19;;;;;;;1.90;1.30;;;;;;;11.26;100.00;98469.19;106843;1281;22552;-68
2023/03/27 06:34:50;;;;;;;3.20;1.10;;;;;;;11.29;100.00;98466.24;106972;1279;22565;-68
2023/03/27 06:37:45;;;;;;;2.70;1.30;;;;;;;11.29;100.00;98465.81;106996;1279;26567;-68
2023/03/27 06:40:21;;;;;;;3.20;1.50;;;;;;;11.31;100.00;98467.83;110123;1279;22864;-69
2023/03/27 06:43:01;;;;;;;3.90;1.90;;;;;;;11.44;100.00;98472.37;110060;1279;23373;-68
2023/03/27 06:45:48;;;;;;;3.80;1.70;;;;;;;11.63;100.00;98473.96;110048;1279;22274;-66
2023/03/27 06:48:35;;;;;;;3.20;1.80;;;;;;;11.70;100.00;98477.02;110118;1280;22192;-66
2023/03/27 06:51:05;;;;;;;3.20;2.00;;;;;;;11.70;100.00;98472.11;110091;1279;22565;-67
2023/03/27 06:53:35;;;;;;;4.40;1.70;;;;;;;11.76;100.00;98468.11;110124;1280;22346;-66
2023/03/27 06:56:06;;;;;;;3.00;1.90;;;;;;;11.66;100.00;98465.43;110100;1280;22193;-66
2023/03/27 06:58:55;;;;;;;3.30;1.70;;;;;;;11.49;100.00;98465.55;108218;1280;25443;-67
2023/03/27 07:01:27;;;;;;;4.70;2.10;;;;;;;11.30;100.00;98460.77;107147;1280;22636;-67
2023/03/27 07:04:16;;;;;;;2.90;1.80;;;;;;;11.20;100.00;98466.48;107049;1280;25312;-67
2023/03/27 07:06:53;;;;;;;3.50;1.60;;;;;;;11.20;100.00;98468.47;107005;1280;25366;-67
2023/03/27 07:09:21;;;;;;;2.70;1.60;;;;;;;11.24;100.00;98469.95;107013;1280;25396;-67
2023/03/27 07:12:03;;;;;;;3.20;1.70;;;;;;;11.39;100.00;98473.43;106947;1280;25446;-67
2023/03/27 07:14:32;;;;;;;2.10;1.50;;;;;;;11.53;100.00;98474.09;106957;1280;24146;-67
2023/03/27 07:17:00;;;;;;;3.10;1.80;;;;;;;11.68;100.00;98476.91;107003;1280;22530;-68
2023/03/27 07:19:41;;;;;;;3.30;1.70;;;;;;;11.83;100.00;98474.64;106982;1280;22529;-68
2023/03/27 07:22:12;;;;;;;3.70;1.60;;;;;;;11.93;100.00;98473.58;107174;1280;25351;-67
2023/03/27 07:24:41;;;;;;;3.90;1.40;;;;;;;12.13;100.00;98479.19;107240;1279;26781;-68
2023/03/27 07:27:10;;;;;;;2.80;1.60;;;;;;;12.27;100.00;98476.52;107127;1280;25350;-68
2023/03/27 07:29:38;;;;;;;3.30;1.30;;;;;;;12.50;100.00;98477.37;107147;1279;24407;-67
2023/03/27 07:32:12;;;;;;;3.00;1.50;;;;;;;12.71;100.00;98472.48;107045;1280;25366;-67
2023/03/27 07:34:53;;;;;;;3.30;1.20;;;;;;;12.94;100.00;98470.33;106953;1280;25245;-68
2023/03/27 07:38:02;;;;;;;3.50;1.50;;;;;;;13.18;100.00;98468.13;106988;1280;26519;-68
2023/03/27 07:40:37;;;;;;;4.20;1.90;;;;;;;13.23;100.00;98469.42;107046;1280;25249;-68
2023/03/27 07:43:37;;;;;;;2.30;1.50;;;;;;;13.46;100.00;98468.15;106345;1280;25356;-68
2023/03/27 07:46:07;;;;;;;2.60;1.30;;;;;;;13.61;100.00;98467.45;106864;1280;22530;-67
2023/03/27 07:48:35;;;;;;;2.20;1.10;;;;;;;13.73;100.00;98466.64;106892;1280;23349;-68
2023/03/27 07:51:06;;;;;;;3.20;1.30;;;;;;;13.71;100.00;98460.38;106725;1280;25350;-68
2023/03/27 07:53:43;;;;;;;2.60;1.30;;;;;;;13.57;100.00;98454.59;106683;1280;22525;-69
2023/03/27 07:56:20;;;;;;;4.30;1.60;;;;;;;13.53;100.00;98449.98;106936;1257;23577;-68
2023/03/27 07:58:51;;;;;;;4.90;1.70;;;;;;;13.56;100.00;98445.48;107024;1280;22526;-68
2023/03/27 08:01:21;;;;;;;2.60;1.50;;;;;;;13.59;100.00;98441.50;106936;1280;26599;-68
2023/03/27 08:03:51;;;;;;;4.70;1.70;;;;;;;13.69;100.00;98436.70;106970;1280;25501;-67
2023/03/27 08:06:20;;;;;;;2.40;1.30;;;;;;;13.80;100.00;98436.52;106965;1280;22763;-68
2023/03/27 08:08:49;;;;;;;2.50;1.40;;;;;;;13.89;100.00;98435.41;106725;1280;22762;-68
2023/03/27 08:11:20;;;;;;;3.70;1.10;;;;;;;14.00;100.00;98435.58;106855;1280;23338;-68
2023/03/27 08:13:58;;;;;;;2.20;1.30;;;;;;;14.11;100.00;98434.17;106839;1280;25600;-68
2023/03/27 08:16:28;;;;;;;2.30;1.10;;;;;;;14.12;100.00;98428.83;107018;1280;22538;-68
2023/03/27 08:19:00;;;;;;;1.90;0.70;;;;;;;14.22;100.00;98431.89;107038;1280;25391;-67
2023/03/27 08:21:30;;;;;;;2.20;1.10;;;;;;;14.24;100.00;98430.28;107094;1280;23195;-68
2023/03/27 08:24:01;;;;;;;2.10;1.20;;;;;;;14.34;100.00;98428.74;107099;1280;22523;-68
2023/03/27 08:26:34;;;;;;;5.30;1.20;;;;;;;14.51;100.00;98428.45;106999;1280;25408;-69
2023/03/27 08:29:07;;;;;;;3.30;0.80;;;;;;;14.75;100.00;98427.96;107035;1257;22723;-68
2023/03/27 08:31:36;;;;;;;3.30;1.00;;;;;;;15.06;100.00;98427.67;110062;1280;22300;-68
2023/03/27 08:34:05;;;;;;;2.60;1.40;;;;;;;15.31;100.00;98421.63;110078;1280;22220;-68
2023/03/27 08:36:53;;;;;;;5.70;1.20;;;;;;;15.58;100.00;98417.16;110118;1280;22291;-68
2023/03/27 08:39:22;;;;;;;2.00;0.90;;;;;;;15.59;100.00;98408.88;110036;1280;23283;-68
2023/03/27 08:41:54;;;;;;;2.40;1.00;;;;;;;15.63;100.00;98404.73;110075;1280;22942;-69
2023/03/27 08:44:29;;;;;;;3.60;0.80;;;;;;;15.86;100.00;98401.17;109990;1280;22401;-69
2023/03/27 08:47:11;;;;;;;2.00;0.80;;;;;;;16.01;100.00;98400.20;109990;1280;22746;-69
2023/03/27 08:49:51;;;;;;;1.70;0.70;;;;;;;16.08;100.00;98396.69;110065;1280;23068;-69
2023/03/27 08:52:31;;;;;;;1.70;0.70;;;;;;;16.24;100.00;98393.85;107045;1280;25294;-69
2023/03/27 08:55:14;;;;;;;2.50;0.80;;;;;;;16.28;100.00;98389.98;107017;1280;25377;-68
2023/03/27 08:57:50;;;;;;;3.20;1.20;;;;;;;16.23;100.00;98379.16;106896;1280;22525;-68
2023/03/27 09:00:25;;;;;;;3.10;0.80;;;;;;;16.15;100.00;98374.86;107153;1280;24343;-67
2023/03/27 09:03:24;;;;;;;2.00;0.60;;;;;;;16.05;100.00;98376.58;106985;1280;25347;-68
2023/03/27 09:06:00;;;;;;;1.50;0.80;;;;;;;16.18;100.00;98377.35;106954;1280;22524;-68
2023/03/27 09:08:48;;;;;;;2.00;0.70;;;;;;;16.34;100.00;98375.05;107067;1280;22530;-68
2023/03/27 09:11:31;;;;;;;2.30;0.60;;;;;;;16.50;100.00;98368.05;107179;1280;24236;-67
2023/03/27 09:14:07;;;;;;;1.80;0.60;;;;;;;16.55;100.00;98360.52;107088;1280;25369;-67
2023/03/27 09:16:40;;;;;;;1.90;0.80;;;;;;;16.62;100.00;98357.71;106954;1280;22520;-67
2023/03/27 09:19:13;;;;;;;3.00;0.80;;;;;;;16.69;100.00;98359.40;106887;1280;22616;-67
2023/03/27 09:21:54;;;;;;;1.50;0.80;;;;;;;16.82;100.00;98362.50;106981;1280;23484;-67
2023/03/27 09:24:45;;;;;;;2.10;0.70;;;;;;;16.96;100.00;98353.42;107003;1280;22568;-68
2023/03/27 09:27:36;;;;;;;2.20;0.80;;;;;;;16.72;100.00;98354.08;107061;1280;25373;-67
2023/03/27 09:30:42;;;;;;;2.80;0.90;;;;;;;16.37;100.00;98344.73;107161;1280;25482;-67
2023/03/27 09:33:32;;;;;;;2.30;1.00;;;;;;;16.19;100.00;98353.30;107035;1280;22584;-68
2023/03/27 09:36:00;;;;;;;2.50;1.10;;;;;;;16.12;100.00;98349.75;106992;1280;25344;-68
2023/03/27 09:38:37;;;;;;;2.00;1.20;;;;;;;15.88;100.00;98346.11;106900;1279;25329;-68
2023/03/27 09:41:18;;;;;;;2.90;0.80;;;;;;;15.55;100.00;98346.74;106778;1279;25345;-68
2023/03/27 09:44:24;;;;;;;2.60;1.00;;;;;;;15.32;100.00;98348.64;107040;1279;22522;-68
2023/03/27 09:47:03;;;;;;;2.20;0.80;;;;;;;15.22;100.00;98348.88;107052;1279;22568;-68
2023/03/27 09:49:32;;;;;;;1.90;1.00;;;;;;;15.18;100.00;98347.98;107161;1276;24071;-67
2023/03/27 09:52:01;;;;;;;4.10;1.20;;;;;;;15.35;100.00;98349.48;107229;1276;23475;-68
2023/03/27 09:54:52;;;;;;;1.80;0.90;;;;;;;15.51;100.00;98346.20;107120;1276;24250;-68
2023/03/27 09:57:32;;;;;;;2.70;1.00;;;;;;;15.50;100.00;98339.66;107290;1276;25489;-68
2023/03/27 10:00:30;;;;;;;1.80;0.80;;;;;;;15.45;100.00;98341.60;110458;1276;22644;-68
2023/03/27 10:03:04;;;;;;;3.00;0.90;;;;;;;15.44;100.00;98339.45;110465;1276;22206;-68
2023/03/27 10:05:34;;;;;;;2.70;1.00;;;;;;;15.38;100.00;98336.70;110470;1276;22831;-68
2023/03/27 10:08:07;;;;;;;3.50;2.10;;;;;;;15.45;100.00;98339.94;110364;1276;22422;-69
2023/03/27 10:10:44;;;;;;;2.90;1.40;;;;;;;15.63;100.00;98341.71;110252;1276;23142;-68
2023/03/27 10:13:28;;;;;;;3.00;1.50;;;;;;;15.83;100.00;98344.00;110339;1276;22286;-69
2023/03/27 10:16:00;;;;;;;3.00;1.50;;;;;;;15.88;100.00;98340.27;110375;1276;22203;-68
2023/03/27 10:18:34;;;;;;;5.50;1.40;;;;;;;15.82;100.00;98334.70;110483;1276;22275;-68
2023/03/27 10:21:09;;;;;;;3.80;1.40;;;;;;;15.70;100.00;98333.81;110376;1276;22360;-68
2023/03/27 10:23:39;;;;;;;3.30;1.10;;;;;;;15.62;100.00;98331.27;110230;1276;23160;-68
2023/03/27 10:26:12;;;;;;;1.70;0.80;;;;;;;15.57;100.00;98328.79;110459;1276;22205;-68
2023/03/27 10:28:51;;;;;;;2.90;1.00;;;;;;;15.50;100.00;98330.98;110514;1276;22304;-68
2023/03/27 10:31:24;;;;;;;2.10;0.90;;;;;;;15.48;100.00;98330.34;110353;1276;22916;-68
2023/03/27 10:34:00;;;;;;;1.60;0.60;;;;;;;15.45;100.00;98326.56;110469;1276;22172;-68
2023/03/27 10:36:49;;;;;;;2.80;0.90;;;;;;;15.43;100.00;98327.27;110364;1276;22260;-68
2023/03/27 10:39:28;;;;;;;3.90;1.80;;;;;;;15.40;100.00;98328.65;110243;1276;22269;-67
2023/03/27 10:42:32;;;;;;;3.20;1.30;;;;;;;15.37;100.00;98322.35;110310;1276;22255;-68
2023/03/27 10:45:06;;;;;;;2.20;1.10;;;;;;;15.32;100.00;98323.24;110520;1276;22217;-68
2023/03/27 10:47:35;;;;;;;2.20;1.00;;;;;;;15.35;100.00;98320.54;107610;1276;22526;-68
2023/03/27 10:50:19;;;;;;;3.10;0.60;;;;;;;15.43;100.00;98318.62;107262;1276;25035;-68
2023/03/27 10:53:16;;;;;;;2.00;0.90;;;;;;;15.49;100.00;98313.15;107335;1276;22526;-68
2023/03/27 10:56:07;;;;;;;2.00;0.80;;;;;;;15.63;100.00;98310.27;107308;1276;25469;-68
2023/03/27 10:58:48;;;;;;;2.50;1.00;;;;;;;15.68;100.00;98301.59;107312;1276;25340;-68
2023/03/27 11:01:41;;;;;;;1.50;0.90;;;;;;;15.67;100.00;98306.58;107259;1276;24374;-68
2023/03/27 11:04:16;;;;;;;1.80;0.70;;;;;;;15.74;100.00;98300.08;107096;1276;25337;-67
2023/03/27 11:06:56;;;;;;;2.30;0.90;;;;;;;15.84;100.00;98294.55;107321;1276;22658;-68
2023/03/27 11:09:30;;;;;;;2.40;1.00;;;;;;;15.99;100.00;98290.90;107159;1276;22547;-68
2023/03/27 11:12:11;;;;;;;4.70;1.70;;;;;;;16.15;100.00;98292.66;107094;1276;25404;-68
2023/03/27 11:15:03;;;;;;;2.80;1.20;;;;;;;16.16;100.00;98285.58;107195;1276;25341;-68
2023/03/27 11:17:41;;;;;;;;;;;;;;;16.15;100.00;98282.98;107189;1276;22504;-68
2023/03/27 11:20:31;;;;;;;2.20;0.90;;;;;;;15.97;100.00;98277.98;107168;1276;23380;-68
2023/03/27 11:23:50;;;;;;;3.40;1.30;;;;;;;15.77;100.00;98278.41;107273;1276;24206;-68
2023/03/27 11:27:00;;;;;;;5.30;3.00;;;;;;;15.49;100.00;98277.42;107265;1276;25497;-68
2023/03/27 11:29:33;;;;;;;3.50;1.60;;;;;;;15.26;100.00;98275.80;107046;1277;25353;-68
2023/03/27 11:32:27;;;;;;;2.90;1.00;;;;;;;15.20;100.00;98278.80;107058;1277;25534;-68
2023/03/27 11:35:04;;;;;;;2.20;1.10;;;;;;;15.17;100.00;98276.94;107311;1276;24402;-67
2023/03/27 11:37:47;;;;;;;2.50;1.50;;;;;;;15.15;100.00;98275.10;107347;1276;25536;-68
2023/03/27 11:40:34;;;;;;;3.20;1.20;;;;;;;15.14;100.00;98277.40;107440;1276;25300;-68
2023/03/27 11:43:02;;;;;;;3.70;1.70;;;;;;;14.98;100.00;98277.21;107122;1276;23087;-68
2023/03/27 11:45:40;;;;;;;4.60;1.20;;;;;;;14.76;100.00;98274.27;110424;1276;23014;-68
2023/03/27 11:48:23;;;;;;;7.00;4.80;;;;;;;14.55;100.00;98274.03;110342;1276;22336;-68
2023/03/27 11:50:58;;;;;;;6.30;2.70;;;;;;;14.39;100.00;98272.77;110333;1276;22303;-68
2023/03/27 11:53:56;;;;;;;5.80;1.40;;;;;;;14.34;100.00;98265.60;110358;1276;23006;-68
2023/03/27 11:56:54;;;;;;;3.20;1.50;;;;;;;14.39;100.00;98263.16;110381;1276;22313;-68
2023/03/27 12:00:24;;;;;;;17.40;9.30;;;;;;;14.53;100.00;98258.97;109992;1276;23110;-68
2023/03/27 12:03:14;;;;;;;6.30;2.80;;;;;;;14.74;100.00;98247.50;110483;1276;22341;-68
2023/03/27 12:05:43;;;;;;;3.20;1.40;;;;;;;15.01;100.00;98248.66;110345;1276;22185;-68
2023/03/27 12:08:23;;;;;;;3.00;1.00;;;;;;;15.12;100.00;98241.88;110496;1276;23071;-66
2023/03/27 12:10:53;;;;;;;6.10;2.90;;;;;;;15.10;100.00;98242.89;109546;1276;25307;-65
2023/03/27 12:14:10;;;;;;;6.00;2.80;;;;;;;14.99;100.00;98242.88;107101;1276;25351;-68